Time;durP1;ratioP1;P1;durP2;ratioP2;P2;SDS_P1;SDS_P2;PMS_P1;PMS_P2;Temp;Humidity;BMP_temperature;BMP_pressure;BME280_temperature;BME280_humidity;BME280_pressure;Samples;Min_cycle;Max_cycle;Signal;HPM_P1;HPM_P2
2023/12/12 00:02:13;;;;;;;;;;;;;;;24.72;24.03;96893.25;5030696;28;19929;-93
2023/12/12 00:04:39;;;;;;;;;;;;;;;24.17;24.35;96902.81;5027789;28;19961;-92
2023/12/12 00:07:05;;;;;;;;;;;;;;;24.42;24.10;96900.53;5015913;28;19924;-93
2023/12/12 00:09:31;;;;;;;;;;;;;;;23.95;24.44;96903.63;5031043;28;19973;-94
2023/12/12 00:11:57;;;;;;;;;;;;;;;24.37;24.26;96903.94;5030483;28;19971;-93
2023/12/12 00:14:23;;;;;;;;;;;;;;;25.05;23.32;96905.44;5029595;28;19929;-93
2023/12/12 00:16:51;;;;;;;;;;;;;;;25.03;23.41;96893.13;5032159;28;20445;-93
2023/12/12 00:19:17;;;;;;;;;;;;;;;24.98;23.29;96900.16;5034111;28;19921;-93
2023/12/12 00:21:43;;;;;;;;;;;;;;;24.83;23.17;96902.03;5032309;28;19925;-93
2023/12/12 00:24:09;;;;;;;;;;;;;;;25.24;22.89;96915.44;5034806;28;19961;-93
2023/12/12 00:26:35;;;;;;;;;;;;;;;25.55;22.38;96901.19;5025048;28;19921;-92
2023/12/12 00:29:02;;;;;;;;;;;;;;;25.39;22.55;96915.56;5036638;28;19981;-93
2023/12/12 00:31:28;;;;;;;;;;;;;;;25.33;22.69;96911.81;5031432;28;19921;-93
2023/12/12 00:33:54;;;;;;;;;;;;;;;25.46;22.40;96920.13;5036912;28;19933;-93
2023/12/12 00:36:21;;;;;;;;;;;;;;;25.30;22.58;96926.78;5029168;28;19976;-93
2023/12/12 00:38:47;;;;;;;;;;;;;;;25.24;23.09;96931.50;5019401;28;19970;-93
2023/12/12 00:41:13;;;;;;;;;;;;;;;25.29;23.02;96930.88;5031028;28;20309;-93
2023/12/12 00:43:40;;;;;;;;;;;;;;;25.13;23.02;96937.59;5032103;28;19960;-93
2023/12/12 00:46:10;;;;;;;;;;;;;;;24.77;23.35;96936.78;5036952;28;19928;-94
2023/12/12 00:48:36;;;;;;;;;;;;;;;24.83;23.58;96935.72;5040504;28;19921;-94
2023/12/12 00:51:02;;;;;;;;;;;;;;;25.21;23.05;96946.47;5040911;28;19927;-94
2023/12/12 00:53:28;;;;;;;;;;;;;;;24.38;23.88;96947.59;5038317;28;19925;-94
2023/12/12 00:55:54;;;;;;;;;;;;;;;24.78;23.61;96950.38;5026157;28;19922;-93
2023/12/12 00:58:20;;;;;;;;;;;;;;;24.47;23.80;96961.66;5042104;28;19924;-93
2023/12/12 01:00:46;;;;;;;;;;;;;;;23.57;25.61;96958.41;5039435;28;19977;-93
2023/12/12 01:03:12;;;;;;;;;;;;;;;23.44;25.26;96969.69;5034304;28;19945;-93
2023/12/12 01:05:38;;;;;;;;;;;;;;;24.14;24.47;96976.66;5039496;28;19963;-92
2023/12/12 01:08:04;;;;;;;;;;;;;;;23.53;25.73;96982.97;5042544;28;20000;-93
2023/12/12 01:10:30;;;;;;;;;;;;;;;23.50;25.48;96986.69;5040785;28;19917;-92
2023/12/12 01:12:56;;;;;;;;;;;;;;;23.98;24.93;96978.44;5035259;28;20016;-93
2023/12/12 01:15:23;;;;;;;;;;;;;;;24.78;23.96;96980.47;5029199;28;19921;-93
2023/12/12 01:17:49;;;;;;;;;;;;;;;25.47;23.13;96977.88;5036537;28;19932;-93
2023/12/12 01:20:15;;;;;;;;;;;;;;;26.16;21.99;96972.28;5035974;28;20005;-92
2023/12/12 01:22:41;;;;;;;;;;;;;;;25.76;24.30;96973.31;5039553;28;19944;-93
2023/12/12 01:25:07;;;;;;;;;;;;;;;26.38;21.71;96986.88;5034490;28;19982;-94
2023/12/12 01:27:33;;;;;;;;;;;;;;;26.60;21.57;96979.75;5043866;28;19951;-93
2023/12/12 01:29:59;;;;;;;;;;;;;;;26.74;21.48;96989.50;5045940;28;20386;-93
2023/12/12 01:32:25;;;;;;;;;;;;;;;26.76;21.36;97001.09;5028174;28;19964;-94
2023/12/12 01:34:51;;;;;;;;;;;;;;;26.98;21.00;96995.19;5027632;28;19974;-93
2023/12/12 01:37:17;;;;;;;;;;;;;;;26.92;21.36;96997.88;5040529;28;19925;-93
2023/12/12 01:39:44;;;;;;;;;;;;;;;27.15;21.10;96997.09;5041581;28;19929;-93
2023/12/12 01:42:10;;;;;;;;;;;;;;;27.33;20.98;96980.03;5041861;28;19951;-93
2023/12/12 01:44:36;;;;;;;;;;;;;;;27.34;20.66;96992.09;5041109;28;19936;-93
2023/12/12 01:47:02;;;;;;;;;;;;;;;27.10;20.98;96991.31;5034025;28;19964;-93
2023/12/12 01:49:28;;;;;;;;;;;;;;;27.09;21.19;96987.75;5061283;28;20080;-93
2023/12/12 01:51:54;;;;;;;;;;;;;;;26.97;20.95;96990.78;5091632;28;19943;-94
2023/12/12 01:54:21;;;;;;;;;;;;;;;26.26;21.80;96994.25;5047726;28;20372;-94
2023/12/12 01:56:49;;;;;;;;;;;;;;;25.96;21.93;97001.69;5036354;28;19982;-93
2023/12/12 01:59:16;;;;;;;;;;;;;;;25.22;22.83;97010.63;5037296;28;19928;-93
2023/12/12 02:01:42;;;;;;;;;;;;;;;25.31;22.80;97007.84;5036804;28;19918;-94
2023/12/12 02:04:09;;;;;;;;;;;;;;;25.97;22.06;97002.47;5044542;28;20024;-94
2023/12/12 02:06:36;;;;;;;;;;;;;;;26.03;21.86;97001.34;5033219;28;19924;-94
2023/12/12 02:09:02;;;;;;;;;;;;;;;26.40;21.70;97004.06;5047588;28;19949;-94
2023/12/12 02:11:28;;;;;;;;;;;;;;;26.26;21.74;97008.34;5047089;28;19946;-93
2023/12/12 02:13:54;;;;;;;;;;;;;;;26.57;21.24;97006.03;5049234;28;19948;-96
2023/12/12 02:16:20;;;;;;;;;;;;;;;26.22;21.50;97009.75;5044511;28;19917;-95
2023/12/12 02:18:46;;;;;;;;;;;;;;;26.54;21.25;97012.59;5040730;28;19927;-95
2023/12/12 02:21:18;;;;;;;;;;;;;;;26.67;21.08;97018.03;5036987;28;19947;-94
2023/12/12 02:23:44;;;;;;;;;;;;;;;26.47;21.31;97020.59;5049053;28;19928;-94
2023/12/12 02:26:10;;;;;;;;;;;;;;;26.44;21.50;97019.50;5049964;28;19917;-94
2023/12/12 02:28:36;;;;;;;;;;;;;;;26.52;20.99;97017.94;5047455;28;19921;-94
2023/12/12 02:31:02;;;;;;;;;;;;;;;26.42;21.22;97019.22;5044993;28;20301;-93
2023/12/12 02:33:29;;;;;;;;;;;;;;;26.30;21.39;97014.56;5044164;28;20182;-94
2023/12/12 02:35:55;;;;;;;;;;;;;;;26.44;21.31;97022.34;5044765;28;19946;-94
2023/12/12 02:38:21;;;;;;;;;;;;;;;26.71;20.87;97013.78;5046680;28;19928;-94
2023/12/12 02:40:47;;;;;;;;;;;;;;;27.05;20.69;97023.00;5049914;28;19925;-95
2023/12/12 02:43:13;;;;;;;;;;;;;;;27.21;20.39;97028.97;5050478;28;19921;-94
2023/12/12 02:45:39;;;;;;;;;;;;;;;27.47;20.16;97022.88;5049169;28;19921;-93
2023/12/12 02:48:05;;;;;;;;;;;;;;;27.29;20.25;97018.91;5043279;28;19929;-93
2023/12/12 02:50:32;;;;;;;;;;;;;;;27.34;20.35;97028.72;5044020;28;19917;-93
2023/12/12 02:52:59;;;;;;;;;;;;;;;27.12;20.23;97031.09;5043752;28;19921;-93
2023/12/12 02:55:25;;;;;;;;;;;;;;;27.29;20.18;97029.38;5042646;28;19963;-94
2023/12/12 02:57:51;;;;;;;;;;;;;;;27.14;20.26;97034.22;5042961;28;19949;-93
2023/12/12 03:00:17;;;;;;;;;;;;;;;26.99;20.46;97031.31;5043928;28;19921;-93
2023/12/12 03:02:43;;;;;;;;;;;;;;;26.53;20.93;97039.22;5044682;28;19921;-93
2023/12/12 03:05:09;;;;;;;;;;;;;;;26.65;20.81;97037.44;5047370;28;19921;-92
2023/12/12 03:07:36;;;;;;;;;;;;;;;26.31;21.46;97035.06;5016644;28;19953;-94
2023/12/12 03:10:02;;;;;;;;;;;;;;;26.63;20.83;97039.91;5032340;28;19968;-93
2023/12/12 03:12:28;;;;;;;;;;;;;;;26.82;20.65;97052.69;5047649;28;19928;-93
2023/12/12 03:14:54;;;;;;;;;;;;;;;26.93;20.51;97052.19;5044435;28;19975;-94
2023/12/12 03:17:20;;;;;;;;;;;;;;;26.82;20.78;97055.50;5025360;28;19925;-94
2023/12/12 03:19:46;;;;;;;;;;;;;;;26.45;21.10;97052.06;5048276;28;19954;-93
2023/12/12 03:22:12;;;;;;;;;;;;;;;26.05;21.52;97051.50;5044498;28;19929;-93
2023/12/12 03:24:38;;;;;;;;;;;;;;;26.38;21.17;97052.38;5021544;28;19926;-94
2023/12/12 03:27:06;;;;;;;;;;;;;;;26.63;20.68;97056.81;5039382;28;19933;-94
2023/12/12 03:29:32;;;;;;;;;;;;;;;26.87;20.66;97054.06;5030272;28;19964;-94
2023/12/12 03:31:58;;;;;;;;;;;;;;;26.35;21.00;97061.78;5027195;28;19927;-93
2023/12/12 03:34:24;;;;;;;;;;;;;;;25.98;22.02;97074.34;5043185;28;19947;-93
2023/12/12 03:36:50;;;;;;;;;;;;;;;25.55;21.97;97069.06;5044975;28;19921;-91
2023/12/12 03:39:16;;;;;;;;;;;;;;;25.06;22.48;97080.38;5024937;28;19960;-93
2023/12/12 03:41:43;;;;;;;;;;;;;;;25.49;22.13;97080.13;5043193;28;19918;-94
2023/12/12 03:44:09;;;;;;;;;;;;;;;25.29;22.15;97074.16;5022102;28;19917;-92
2023/12/12 03:46:35;;;;;;;;;;;;;;;26.21;21.15;97079.31;5017927;28;19922;-92
2023/12/12 03:49:01;;;;;;;;;;;;;;;25.69;21.80;97074.06;5043276;28;19925;-93
2023/12/12 03:51:27;;;;;;;;;;;;;;;25.90;21.97;97073.13;5051331;28;19923;-92
2023/12/12 03:53:54;;;;;;;;;;;;;;;25.85;21.57;97076.56;5056398;28;19925;-92
2023/12/12 03:56:20;;;;;;;;;;;;;;;25.65;21.85;97073.44;5036643;28;19925;-93
2023/12/12 03:58:47;;;;;;;;;;;;;;;26.00;21.29;97069.81;5034450;28;20394;-93
2023/12/12 04:01:13;;;;;;;;;;;;;;;26.48;20.86;97065.19;5023268;28;20338;-93
2023/12/12 04:03:39;;;;;;;;;;;;;;;26.79;20.51;97073.38;5038423;28;19931;-92
2023/12/12 04:06:06;;;;;;;;;;;;;;;26.37;20.75;97073.34;5034571;28;20451;-93
2023/12/12 04:08:33;;;;;;;;;;;;;;;26.43;20.71;97074.28;5030830;28;19940;-93
2023/12/12 04:10:59;;;;;;;;;;;;;;;26.25;21.20;97070.72;5029096;28;19928;-93
2023/12/12 04:13:25;;;;;;;;;;;;;;;25.84;21.62;97081.38;5018784;28;19933;-92
2023/12/12 04:15:51;;;;;;;;;;;;;;;25.58;21.77;97074.50;5038211;28;20312;-93
2023/12/12 04:18:17;;;;;;;;;;;;;;;25.00;22.45;97074.56;5031825;28;20305;-92
2023/12/12 04:20:43;;;;;;;;;;;;;;;24.96;22.63;97078.78;5034890;28;19921;-91
2023/12/12 04:23:10;;;;;;;;;;;;;;;25.77;21.88;97078.88;5023156;28;19936;-92
2023/12/12 04:25:36;;;;;;;;;;;;;;;25.77;21.88;97090.13;5028532;28;21539;-92
2023/12/12 04:28:02;;;;;;;;;;;;;;;26.11;21.58;97080.63;5035914;28;19913;-92
2023/12/12 04:30:28;;;;;;;;;;;;;;;26.49;20.95;97083.63;5031335;28;19925;-92
2023/12/12 04:32:54;;;;;;;;;;;;;;;26.98;20.73;97088.16;5031949;28;19921;-93
2023/12/12 04:35:20;;;;;;;;;;;;;;;27.29;20.39;97089.38;5008041;28;20385;-93
2023/12/12 04:37:47;;;;;;;;;;;;;;;27.41;20.10;97098.88;5026867;28;19921;-92
2023/12/12 04:40:13;;;;;;;;;;;;;;;27.54;19.93;97107.09;5031947;28;19921;-92
2023/12/12 04:42:39;;;;;;;;;;;;;;;27.57;19.83;97109.72;5025559;28;20360;-91
2023/12/12 04:45:05;;;;;;;;;;;;;;;27.69;19.47;97111.50;5028143;28;20007;-92
2023/12/12 04:47:31;;;;;;;;;;;;;;;27.22;20.31;97111.47;5030362;28;19921;-92
2023/12/12 04:49:57;;;;;;;;;;;;;;;27.35;19.90;97114.88;5013018;28;19928;-92
2023/12/12 04:52:23;;;;;;;;;;;;;;;27.38;19.99;97120.34;5030954;28;20001;-92
2023/12/12 04:54:49;;;;;;;;;;;;;;;27.40;19.88;97120.63;5024655;28;19928;-92
2023/12/12 04:57:16;;;;;;;;;;;;;;;27.41;20.04;97118.59;5011308;28;20367;-92
2023/12/12 04:59:43;;;;;;;;;;;;;;;27.13;20.46;97123.59;5014385;28;20061;-91
2023/12/12 05:02:09;;;;;;;;;;;;;;;27.17;20.42;97124.19;5016989;28;19921;-92
2023/12/12 05:04:37;;;;;;;;;;;;;;;27.31;20.27;97125.53;5014234;28;19931;-91
2023/12/12 05:07:04;;;;;;;;;;;;;;;27.51;19.93;97120.13;5030693;28;19917;-90
2023/12/12 05:09:30;;;;;;;;;;;;;;;27.34;20.25;97121.75;5026211;28;20382;-90
2023/12/12 05:11:56;;;;;;;;;;;;;;;27.44;20.18;97122.50;5018273;28;20008;-92
2023/12/12 05:14:22;;;;;;;;;;;;;;;27.42;19.98;97125.03;5028305;28;19974;-92
2023/12/12 05:16:49;;;;;;;;;;;;;;;27.14;20.16;97124.38;5027349;28;20397;-92
2023/12/12 05:19:15;;;;;;;;;;;;;;;26.87;20.49;97133.72;5012141;28;19929;-94
2023/12/12 05:21:41;;;;;;;;;;;;;;;26.63;20.44;97144.88;5028668;28;19928;-93
2023/12/12 05:24:07;;;;;;;;;;;;;;;25.91;21.33;97142.16;5029664;28;19917;-92
2023/12/12 05:26:34;;;;;;;;;;;;;;;25.96;21.46;97142.31;5030357;28;19929;-93
2023/12/12 05:29:00;;;;;;;;;;;;;;;25.60;22.00;97153.53;5035027;28;19917;-93
2023/12/12 05:31:27;;;;;;;;;;;;;;;26.32;21.10;97154.81;5028791;28;19928;-92
2023/12/12 05:33:53;;;;;;;;;;;;;;;26.85;20.67;97152.38;5029918;28;19936;-92
2023/12/12 05:36:19;;;;;;;;;;;;;;;26.67;20.51;97158.81;5022849;28;19925;-87
2023/12/12 05:38:45;;;;;;;;;;;;;;;25.94;21.33;97161.72;5026757;28;20358;-86
2023/12/12 05:41:12;;;;;;;;;;;;;;;25.58;21.76;97172.16;5026365;28;19917;-87
2023/12/12 05:43:38;;;;;;;;;;;;;;;26.06;21.14;97163.59;5014782;28;19972;-88
2023/12/12 05:46:04;;;;;;;;;;;;;;;26.10;21.06;97171.88;5020553;28;19921;-88
2023/12/12 05:48:30;;;;;;;;;;;;;;;26.47;20.82;97176.22;5025738;28;19917;-88
2023/12/12 05:50:57;;;;;;;;;;;;;;;26.59;20.66;97185.72;5026220;28;19922;-89
2023/12/12 05:53:23;;;;;;;;;;;;;;;26.62;20.73;97188.41;5026390;28;19917;-89
2023/12/12 05:55:49;;;;;;;;;;;;;;;26.42;21.08;97188.09;5016746;28;19976;-89
2023/12/12 05:58:15;;;;;;;;;;;;;;;25.28;22.26;97194.19;5010157;28;19918;-89
2023/12/12 06:00:42;;;;;;;;;;;;;;;24.84;22.87;97201.19;4992606;28;19917;-89
2023/12/12 06:03:08;;;;;;;;;;;;;;;24.76;22.92;97213.97;5027398;28;19930;-88
2023/12/12 06:05:34;;;;;;;;;;;;;;;24.97;22.75;97213.09;5028623;28;20377;-88
2023/12/12 06:08:01;;;;;;;;;;;;;;;25.22;22.57;97223.38;5032631;28;19917;-89
2023/12/12 06:10:27;;;;;;;;;;;;;;;25.79;22.08;97210.59;5032954;28;19917;-89
2023/12/12 06:12:53;;;;;;;;;;;;;;;26.04;21.58;97225.13;5026930;28;19947;-87
2023/12/12 06:15:20;;;;;;;;;;;;;;;25.96;21.94;97229.53;5033129;28;19962;-86
2023/12/12 06:17:46;;;;;;;;;;;;;;;25.70;22.17;97233.06;5014759;28;19961;-89
2023/12/12 06:20:13;;;;;;;;;;;;;;;25.21;22.94;97235.84;5032053;28;20385;-89
2023/12/12 06:22:39;;;;;;;;;;;;;;;24.88;23.87;97243.94;5013231;28;19974;-89
2023/12/12 06:25:06;;;;;;;;;;;;;;;23.37;26.04;97244.47;5025812;28;19917;-89
2023/12/12 06:27:32;;;;;;;;;;;;;;;23.53;25.17;97244.34;5033098;28;19917;-89
2023/12/12 06:29:58;;;;;;;;;;;;;;;23.18;25.86;97249.03;5031665;28;20012;-87
2023/12/12 06:32:25;;;;;;;;;;;;;;;23.86;25.16;97258.84;5031926;28;19928;-89
2023/12/12 06:34:51;;;;;;;;;;;;;;;23.87;25.15;97263.22;5028005;28;19925;-89
2023/12/12 06:37:17;;;;;;;;;;;;;;;24.35;24.42;97262.75;5030195;28;19972;-87
2023/12/12 06:39:43;;;;;;;;;;;;;;;24.26;24.50;97267.50;5031263;28;20017;-90
2023/12/12 06:42:09;;;;;;;;;;;;;;;24.02;24.71;97270.69;5026722;28;19962;-89
2023/12/12 06:44:36;;;;;;;;;;;;;;;24.19;24.78;97262.13;5019409;28;19921;-89
2023/12/12 06:47:03;;;;;;;;;;;;;;;24.77;23.89;97268.84;5031204;28;19918;-90
2023/12/12 06:49:29;;;;;;;;;;;;;;;25.15;23.52;97272.19;5031683;28;20381;-89
2023/12/12 06:51:55;;;;;;;;;;;;;;;25.40;23.03;97272.00;5020772;28;19925;-89
2023/12/12 06:54:21;;;;;;;;;;;;;;;26.07;22.53;97274.06;5031040;28;20437;-89
2023/12/12 06:56:48;;;;;;;;;;;;;;;25.87;22.52;97277.31;5024330;28;19921;-90
2023/12/12 06:59:14;;;;;;;;;;;;;;;24.99;23.63;97289.28;5028640;28;20378;-89
2023/12/12 07:01:40;;;;;;;;;;;;;;;25.14;23.56;97289.50;5030192;28;19922;-89
2023/12/12 07:04:06;;;;;;;;;;;;;;;24.77;23.68;97284.91;5032738;28;19944;-92
2023/12/12 07:06:32;;;;;;;;;;;;;;;25.30;23.21;97289.25;5029910;28;19921;-91
2023/12/12 07:09:00;;;;;;;;;;;;;;;24.71;23.96;97287.50;5032403;28;19929;-90
2023/12/12 07:11:26;;;;;;;;;;;;;;;24.83;23.64;97295.13;5027834;28;19928;-89
2023/12/12 07:13:52;;;;;;;;;;;;;;;24.50;24.23;97302.31;5029714;28;20331;-89
2023/12/12 07:16:19;;;;;;;;;;;;;;;24.28;24.56;97299.47;5032254;28;19921;-89
2023/12/12 07:18:46;;;;;;;;;;;;;;;24.87;23.60;97304.19;5031134;28;20374;-89
2023/12/12 07:21:15;;;;;;;;;;;;;;;24.09;24.47;97310.97;5022364;28;19922;-89
2023/12/12 07:23:41;;;;;;;;;;;;;;;24.13;24.77;97303.25;5011578;28;19963;-89
2023/12/12 07:26:07;;;;;;;;;;;;;;;23.60;25.96;97316.97;5031964;28;20329;-89
2023/12/12 07:28:33;;;;;;;;;;;;;;;24.04;24.59;97315.88;5031566;28;19917;-88
2023/12/12 07:31:00;;;;;;;;;;;;;;;24.00;24.66;97311.63;5111348;28;20018;-89
2023/12/12 07:33:26;;;;;;;;;;;;;;;23.02;27.54;97321.16;5104047;28;20014;-88
2023/12/12 07:35:52;;;;;;;;;;;;;;;23.36;25.45;97329.75;4991842;28;20317;-88
2023/12/12 07:38:18;;;;;;;;;;;;;;;24.03;24.58;97319.94;5067182;28;19923;-88
2023/12/12 07:40:44;;;;;;;;;;;;;;;23.87;24.48;97334.09;5114864;28;19920;-88
2023/12/12 07:43:10;;;;;;;;;;;;;;;23.23;25.62;97331.72;5115199;28;19919;-88
2023/12/12 07:45:37;;;;;;;;;;;;;;;23.34;26.14;97330.19;5114856;28;20391;-88
2023/12/12 07:48:03;;;;;;;;;;;;;;;23.13;26.35;97338.41;5115184;28;19916;-88
2023/12/12 07:50:29;;;;;;;;;;;;;;;22.78;28.87;97343.03;5114670;27;19919;-88
2023/12/12 07:52:55;;;;;;;;;;;;;;;24.44;24.02;97349.81;5096455;28;19920;-88
2023/12/12 07:55:21;;;;;;;;;;;;;;;24.20;24.41;97345.81;5064280;28;20274;-86
2023/12/12 07:57:47;;;;;;;;;;;;;;;24.51;24.08;97352.38;5091093;28;20265;-86
2023/12/12 08:00:13;;;;;;;;;;;;;;;23.69;25.05;97355.50;5114710;28;19920;-86
2023/12/12 08:02:40;;;;;;;;;;;;;;;23.64;25.13;97358.91;5113933;28;20330;-86
2023/12/12 08:05:06;;;;;;;;;;;;;;;24.59;23.75;97355.72;5114609;28;19930;-86
2023/12/12 08:07:32;;;;;;;;;;;;;;;24.76;23.69;97353.50;5115009;28;19916;-85
2023/12/12 08:09:58;;;;;;;;;;;;;;;25.06;23.39;97364.06;5114242;28;19920;-85
2023/12/12 08:12:25;;;;;;;;;;;;;;;25.23;22.77;97354.94;5113940;28;19961;-86
2023/12/12 08:14:53;;;;;;;;;;;;;;;24.96;23.16;97357.59;5113701;28;19923;-85
2023/12/12 08:17:20;;;;;;;;;;;;;;;25.32;22.86;97371.88;5114552;28;19981;-86
2023/12/12 08:19:46;;;;;;;;;;;;;;;24.84;23.46;97380.91;5114690;28;20019;-86
2023/12/12 08:22:12;;;;;;;;;;;;;;;24.42;23.79;97379.56;5069303;28;19969;-85
2023/12/12 08:24:38;;;;;;;;;;;;;;;24.91;23.30;97391.09;5030054;28;19948;-86
2023/12/12 08:27:04;;;;;;;;;;;;;;;25.72;22.55;97388.06;5067885;28;19916;-86
2023/12/12 08:29:30;;;;;;;;;;;;;;;25.62;22.18;97394.88;5112723;28;20281;-86
2023/12/12 08:31:56;;;;;;;;;;;;;;;25.72;22.23;97396.50;5113032;28;19967;-86
2023/12/12 08:34:23;;;;;;;;;;;;;;;25.22;22.87;97394.75;5093998;28;20369;-86
2023/12/12 08:36:50;;;;;;;;;;;;;;;24.54;23.92;97393.56;5046144;28;19922;-86
2023/12/12 08:39:16;;;;;;;;;;;;;;;24.62;23.49;97388.50;5011159;28;19918;-86
2023/12/12 08:41:42;;;;;;;;;;;;;;;24.93;23.07;97389.41;5011187;28;19978;-86
2023/12/12 08:44:08;;;;;;;;;;;;;;;23.66;24.77;97401.28;5024707;28;20096;-86
2023/12/12 08:46:34;;;;;;;;;;;;;;;24.94;23.03;97401.41;5030341;28;20390;-86
2023/12/12 08:49:00;;;;;;;;;;;;;;;25.40;22.40;97392.84;5028810;28;19921;-86
2023/12/12 08:51:26;;;;;;;;;;;;;;;25.16;22.66;97393.75;5030117;28;19928;-86
2023/12/12 08:53:53;;;;;;;;;;;;;;;25.15;22.70;97393.00;5030869;28;20397;-85
2023/12/12 08:56:19;;;;;;;;;;;;;;;24.85;22.98;97393.72;5030772;28;19917;-85
2023/12/12 08:58:47;;;;;;;;;;;;;;;24.09;24.34;97400.72;5030413;28;20019;-86
2023/12/12 09:01:14;;;;;;;;;;;;;;;23.60;24.65;97400.25;5030453;28;19929;-86
2023/12/12 09:03:40;;;;;;;;;;;;;;;24.51;23.44;97393.69;5028075;28;19917;-85
2023/12/12 09:06:07;;;;;;;;;;;;;;;24.10;24.19;97396.69;5010799;28;20417;-87
2023/12/12 09:08:33;;;;;;;;;;;;;;;24.95;23.10;97392.53;5013524;28;19929;-85
2023/12/12 09:10:59;;;;;;;;;;;;;;;24.91;22.87;97391.88;5025418;28;19929;-86
2023/12/12 09:13:26;;;;;;;;;;;;;;;23.31;25.22;97389.84;4993318;28;19918;-85
2023/12/12 09:15:52;;;;;;;;;;;;;;;24.02;24.24;97393.28;5010799;28;20340;-85
2023/12/12 09:18:18;;;;;;;;;;;;;;;23.57;24.71;97387.91;5025835;28;19921;-86
2023/12/12 09:20:44;;;;;;;;;;;;;;;23.24;25.27;97395.66;5030312;28;20012;-86
2023/12/12 09:23:10;;;;;;;;;;;;;;;22.87;26.19;97387.19;5033540;28;19924;-85
2023/12/12 09:25:36;;;;;;;;;;;;;;;23.16;25.73;97393.53;5029638;28;20411;-86
2023/12/12 09:28:02;;;;;;;;;;;;;;;22.59;26.46;97389.47;5029794;28;19921;-87
2023/12/12 09:30:28;;;;;;;;;;;;;;;22.83;25.86;97387.28;5030357;28;19921;-86
2023/12/12 09:32:55;;;;;;;;;;;;;;;23.24;26.53;97390.06;5010458;28;19975;-86
2023/12/12 09:35:21;;;;;;;;;;;;;;;23.20;26.34;97391.41;5026120;28;20020;-86
2023/12/12 09:37:47;;;;;;;;;;;;;;;23.44;24.76;97389.91;5029703;28;19957;-86
2023/12/12 09:40:13;;;;;;;;;;;;;;;24.10;24.06;97394.66;5029325;28;20007;-86
2023/12/12 09:42:39;;;;;;;;;;;;;;;23.69;24.82;97391.94;5032463;28;19921;-86
2023/12/12 09:45:13;;;;;;;;;;;;;;;23.55;24.63;97390.38;5033585;28;19918;-87
2023/12/12 09:47:42;;;;;;;;;;;;;;;24.48;23.67;97405.81;5033479;28;19917;-86
2023/12/12 09:50:09;;;;;;;;;;;;;;;24.82;23.20;97405.06;5033231;28;19940;-87
2023/12/12 09:52:36;;;;;;;;;;;;;;;24.75;23.30;97403.25;5032608;28;19921;-87
2023/12/12 09:55:03;;;;;;;;;;;;;;;23.93;24.33;97390.38;5033519;28;20335;-88
2023/12/12 09:57:30;;;;;;;;;;;;;;;25.18;22.58;97400.50;5018245;28;19965;-86
2023/12/12 09:59:58;;;;;;;;;;;;;;;23.38;24.76;97397.31;5013740;28;19925;-88
2023/12/12 10:02:30;;;;;;;;;;;;;;;23.44;24.41;97389.91;5032974;28;19928;-86
2023/12/12 10:04:56;;;;;;;;;;;;;;;24.72;23.13;97390.13;5033030;28;19961;-86
2023/12/12 10:07:24;;;;;;;;;;;;;;;24.40;23.50;97401.69;5033170;28;20378;-86
2023/12/12 10:09:50;;;;;;;;;;;;;;;24.94;22.87;97399.41;5032998;28;19920;-87
2023/12/12 10:12:17;;;;;;;;;;;;;;;25.02;22.83;97395.06;5032332;28;19917;-87
2023/12/12 10:14:44;;;;;;;;;;;;;;;25.17;22.60;97410.19;5033094;28;20338;-86
2023/12/12 10:17:13;;;;;;;;;;;;;;;25.71;21.97;97397.72;5032865;28;19924;-86
2023/12/12 10:19:40;;;;;;;;;;;;;;;25.99;21.65;97399.41;5015276;28;20000;-86
2023/12/12 10:22:09;;;;;;;;;;;;;;;25.94;21.91;97408.44;5032442;28;19924;-87
2023/12/12 10:24:36;;;;;;;;;;;;;;;26.02;21.81;97409.75;5046044;28;20304;-86
2023/12/12 10:27:06;;;;;;;;;;;;;;;26.28;21.31;97401.88;5015040;28;19949;-86
2023/12/12 10:29:32;;;;;;;;;;;;;;;25.55;21.96;97412.00;5029552;28;20294;-86
2023/12/12 10:31:59;;;;;;;;;;;;;;;24.59;23.10;97417.47;5013114;28;19926;-87
2023/12/12 10:34:27;;;;;;;;;;;;;;;24.92;22.80;97410.31;5026768;28;19925;-87
2023/12/12 10:36:54;;;;;;;;;;;;;;;25.35;22.46;97403.88;5032449;28;19928;-87
2023/12/12 10:39:20;;;;;;;;;;;;;;;26.27;21.06;97412.34;5032776;28;19917;-87
2023/12/12 10:41:55;;;;;;;;;;;;;;;26.77;20.71;97416.66;5031714;28;20020;-87
2023/12/12 10:44:21;;;;;;;;;;;;;;;26.87;20.56;97412.63;5014810;28;19954;-87
2023/12/12 10:46:50;;;;;;;;;;;;;;;26.67;20.67;97412.25;5032625;28;19924;-87
2023/12/12 10:49:19;;;;;;;;;;;;;;;24.83;22.33;97421.47;5032536;28;19918;-87
2023/12/12 10:51:47;;;;;;;;;;;;;;;26.01;21.36;97420.19;5031071;28;20434;-88
2023/12/12 10:54:16;;;;;;;;;;;;;;;26.35;21.00;97416.41;5038286;28;19961;-87
2023/12/12 10:56:46;;;;;;;;;;;;;;;26.73;21.10;97410.38;5026442;28;19925;-87
2023/12/12 10:59:15;;;;;;;;;;;;;;;26.93;20.63;97413.56;5019174;28;20404;-87
2023/12/12 11:01:41;;;;;;;;;;;;;;;27.15;20.23;97407.75;5032288;28;19928;-87
2023/12/12 11:04:07;;;;;;;;;;;;;;;26.52;20.86;97408.47;5021356;28;19985;-87
2023/12/12 11:06:34;;;;;;;;;;;;;;;26.38;21.03;97403.44;5031542;28;19921;-87
2023/12/12 11:09:00;;;;;;;;;;;;;;;26.51;21.12;97406.94;5033252;28;19956;-87
2023/12/12 11:11:26;;;;;;;;;;;;;;;25.34;22.13;97414.34;5031997;28;19924;-87
2023/12/12 11:13:53;;;;;;;;;;;;;;;25.78;21.89;97415.09;5014854;28;20301;-87
2023/12/12 11:16:19;;;;;;;;;;;;;;;25.96;21.61;97417.19;5031996;28;19925;-88
2023/12/12 11:18:45;;;;;;;;;;;;;;;24.84;25.87;97425.03;5031374;28;20301;-88
2023/12/12 11:21:30;;;;;;;;;;;;;;;24.78;22.87;97416.44;5032110;28;19921;-87
2023/12/12 11:23:56;;;;;;;;;;;;;;;25.01;23.06;97426.44;5031888;28;20008;-87
2023/12/12 11:26:25;;;;;;;;;;;;;;;24.95;22.48;97426.22;5023142;28;19964;-87
2023/12/12 11:28:52;;;;;;;;;;;;;;;25.26;22.37;97427.09;5012558;28;20432;-87
2023/12/12 11:31:24;;;;;;;;;;;;;;;25.78;21.92;97428.38;5011040;28;19917;-88
2023/12/12 11:34:20;;;;;;;;;;;;;;;25.13;22.66;97429.19;5023754;28;19925;-87
2023/12/12 11:36:48;;;;;;;;;;;;;;;25.26;22.61;97431.94;4999417;28;19925;-87
2023/12/12 11:39:17;;;;;;;;;;;;;;;25.67;22.22;97433.63;5022937;28;19933;-87
2023/12/12 11:41:45;;;;;;;;;;;;;;;25.15;22.85;97428.72;5012224;28;19922;-86
2023/12/12 11:44:11;;;;;;;;;;;;;;;26.04;21.80;97427.69;5012090;28;20357;-86
2023/12/12 11:46:37;;;;;;;;;;;;;;;26.74;20.96;97424.00;5012102;28;20373;-86
2023/12/12 11:49:19;;;;;;;;;;;;;;;26.16;21.46;97436.53;5019600;28;20453;-87
2023/12/12 11:51:46;;;;;;;;;;;;;;;26.65;21.01;97437.31;5031219;28;19928;-86
2023/12/12 11:54:19;;;;;;;;;;;;;;;26.76;21.08;97431.22;5031312;28;20008;-86
2023/12/12 11:56:45;;;;;;;;;;;;;;;27.38;20.54;97427.66;5018361;28;19922;-86
2023/12/12 11:59:11;;;;;;;;;;;;;;;27.22;20.50;97419.50;5012087;28;20283;-87
2023/12/12 12:01:38;;;;;;;;;;;;;;;27.74;19.88;97423.19;5015192;28;19928;-86
2023/12/12 12:04:04;;;;;;;;;;;;;;;27.89;19.88;97424.09;5024115;28;19925;-87
2023/12/12 12:06:30;;;;;;;;;;;;;;;27.69;20.29;97426.63;5028298;28;19921;-87
2023/12/12 12:08:58;;;;;;;;;;;;;;;28.00;19.63;97430.81;5016375;28;20143;-86
2023/12/12 12:11:35;;;;;;;;;;;;;;;28.41;19.42;97425.56;5031804;28;20022;-86
2023/12/12 12:14:01;;;;;;;;;;;;;;;28.89;19.23;97429.22;5031295;28;19924;-86
2023/12/12 12:16:27;;;;;;;;;;;;;;;29.18;18.99;97437.81;5031467;28;19962;-86
2023/12/12 12:18:54;;;;;;;;;;;;;;;28.85;19.15;97439.91;5031497;28;20346;-85
2023/12/12 12:21:24;;;;;;;;;;;;;;;28.91;19.20;97438.00;5031204;28;20335;-85
2023/12/12 12:23:51;;;;;;;;;;;;;;;29.25;18.93;97443.09;5031027;28;19962;-86
2023/12/12 12:26:18;;;;;;;;;;;;;;;29.16;18.78;97437.47;5031114;28;19964;-86
2023/12/12 12:28:44;;;;;;;;;;;;;;;29.34;18.28;97440.97;5015838;28;20012;-86
2023/12/12 12:31:10;;;;;;;;;;;;;;;28.95;18.66;97427.28;5019911;28;19925;-86
2023/12/12 12:33:40;;;;;;;;;;;;;;;28.88;18.79;97436.13;5031243;28;19987;-86
2023/12/12 12:36:06;;;;;;;;;;;;;;;29.04;18.61;97433.66;5029929;28;19928;-85
2023/12/12 12:38:32;;;;;;;;;;;;;;;29.06;18.23;97422.63;5031122;28;19927;-86
2023/12/12 12:40:58;;;;;;;;;;;;;;;28.59;18.86;97434.75;5013162;28;19970;-85
2023/12/12 12:43:25;;;;;;;;;;;;;;;28.64;18.66;97431.28;5030745;28;19917;-86
2023/12/12 12:45:52;;;;;;;;;;;;;;;28.62;18.72;97435.84;5013210;28;19925;-86